Condor Express — WDG7544 — position and weather

sailwx.info

Track history (hours):
 
Tides and Currents Weather Stations Pressure Air Temp Water Temp Dewpoint Dewpoint Depression Visibility Wind Speed Wind Dir Waves Ship Positions

Condor Express

Owner: H & M Landing Inc, Santa Barbara, CA. More information available from US FCC via Universal Licensing System and Coast Guard Vessel Documentation Center.

Last reported at 2018-Feb-21 01:15 UTC. Time now 2018-Feb-21 03:44 UTC.
Position N 34°24' W 119°41'.

Length 23 m.

Type: Ship. MMSI: 367568350.

Date/timePositionNaut miles runAvg speedWind from/ knotsBaromVisibWave heightAir tempDewpointWater temp
2018-Feb-21 01:15N 34°24' W 119°41'311.1
2018-Feb-21 00:56N 34°22' W 119°44'510.0
2018-Feb-21 00:29N 34°21' W 119°50'4 7.3
2018-Feb-20 23:58N 34°24' W 119°47'3 6.2
2018-Feb-20 23:29N 34°24' W 119°43'2 0.6
2018-Feb-20 20:27N 34°24' W 119°42'0 0.0
2018-Feb-20 06:17N 34°24' W 119°42'0 0.0
2018-Feb-19 22:47N 34°24' W 119°42'0 0.0
2018-Feb-19 19:08N 34°24' W 119°42'0 0.0
2018-Feb-18 22:51N 34°24' W 119°41'410.8
2018-Feb-18 22:27N 34°22' W 119°46'3 6.0
2018-Feb-18 21:55N 34°19' W 119°45'818.0
2018-Feb-18 21:27N 34°11' W 119°48'5 9.5
2018-Feb-18 20:58N 34°08' W 119°52'3 6.7
2018-Feb-18 20:29N 34°05' W 119°53'4 7.9
2018-Feb-18 20:00N 34°07' W 119°50'1 1.8
2018-Feb-18 19:30N 34°08' W 119°49'611.0
2018-Feb-18 18:56N 34°14' W 119°49'916.8
2018-Feb-18 18:26N 34°21' W 119°44'4 1.0
2018-Feb-18 14:27N 34°24' W 119°42'0 0.0
2018-Feb-18 11:12N 34°24' W 119°42'0 0.0
2018-Feb-18 07:54N 34°24' W 119°42'0 0.0
2018-Feb-18 06:00N 34°24' W 119°42'0 0.0
2018-Feb-18 05:27N 34°24' W 119°42'0 0.0
2018-Feb-18 04:36N 34°24' W 119°42'0 0.0
2018-Feb-18 01:18N 34°24' W 119°42'0 0.0
2018-Feb-18 00:45N 34°24' W 119°42'0 0.0
2018-Feb-18 00:27N 34°24' W 119°42'0 0.0
2018-Feb-17 22:42N 34°24' W 119°42'310.9
2018-Feb-17 22:27N 34°22' W 119°43'1019.9
2018-Feb-17 21:57N 34°13' W 119°48'613.2
2018-Feb-17 21:29N 34°07' W 119°51'3 5.5
2018-Feb-17 20:56N 34°04' W 119°50'1 1.3
2018-Feb-17 20:26N 34°04' W 119°51'3 7.1
2018-Feb-17 20:00N 34°07' W 119°49'2 3.3
2018-Feb-17 19:30N 34°08' W 119°51'916.7
2018-Feb-17 19:00N 34°16' W 119°47'1017.0
2018-Feb-17 18:26N 34°24' W 119°40'1 0.6
2018-Feb-17 16:07N 34°24' W 119°42'0 0.0
2018-Feb-17 14:58N 34°24' W 119°42'0 0.0
2018-Feb-17 14:28N 34°24' W 119°42'0 0.0
2018-Feb-17 13:46N 34°24' W 119°42'0 0.0
2018-Feb-17 13:25N 34°24' W 119°42'0 0.0
2018-Feb-17 11:10N 34°24' W 119°42'0 0.0
2018-Feb-17 10:52N 34°24' W 119°42'0 0.0
2018-Feb-17 07:10N 34°24' W 119°42'0 0.0
2018-Feb-17 06:49N 34°24' W 119°42'0 0.0
2018-Feb-17 06:13N 34°24' W 119°42'0 0.0
2018-Feb-17 03:22N 34°24' W 119°42'0 0.0
2018-Feb-17 02:49N 34°24' W 119°42'0 0.0
2018-Feb-17 00:25N 34°24' W 119°42'0 0.0
2018-Feb-16 23:01N 34°24' W 119°42'0 0.0
2018-Feb-16 22:37N 34°24' W 119°42'1 3.6
2018-Feb-16 22:24N 34°24' W 119°41'817.3
2018-Feb-16 21:57N 34°17' W 119°44'1018.6
2018-Feb-16 21:26N 34°08' W 119°49'4 7.2
2018-Feb-16 20:49N 34°06' W 119°54'3 7.1
2018-Feb-16 20:27N 34°08' W 119°54'4 7.9
2018-Feb-16 19:59N 34°12' W 119°52'10 7.6
2018-Feb-16 18:39N 34°21' W 119°48'313.1
2018-Feb-16 18:24N 34°23' W 119°45'3 0.9
2018-Feb-16 15:08N 34°24' W 119°42'0 0.0
2018-Feb-16 14:59N 34°24' W 119°42'0 0.0
2018-Feb-16 14:26N 34°24' W 119°42'0 0.0
2018-Feb-16 12:08N 34°24' W 119°42'0 0.0
2018-Feb-16 10:59N 34°24' W 119°42'0 0.0
2018-Feb-16 10:17N 34°24' W 119°42'0 0.0
2018-Feb-16 09:44N 34°24' W 119°42'0 0.0
2018-Feb-16 09:17N 34°24' W 119°42'0 0.0
2018-Feb-16 05:32N 34°24' W 119°42'0 0.0
2018-Feb-16 04:02N 34°24' W 119°42'0 0.0
2018-Feb-16 03:56N 34°24' W 119°42'0 0.0
2018-Feb-16 02:38N 34°24' W 119°42'0 0.0
2018-Feb-16 02:17N 34°24' W 119°42'0 0.0
2018-Feb-16 01:59N 34°24' W 119°42'0 0.0
2018-Feb-15 22:56N 34°24' W 119°42'0 0.0
2018-Feb-15 22:29N 34°24' W 119°42'0 0.0
2018-Feb-15 21:41N 34°24' W 119°42'0 0.0
2018-Feb-15 21:29N 34°24' W 119°42'0 0.0
2018-Feb-15 20:56N 34°24' W 119°42'0 0.0
2018-Feb-15 19:12N 34°24' W 119°42'0 0.5
2018-Feb-15 18:59N 34°24' W 119°41'0 0.1
2018-Feb-15 18:18N 34°24' W 119°41'0 0.3
2018-Feb-15 17:51N 34°24' W 119°42'0 0.0
2018-Feb-15 13:57N 34°24' W 119°42'0 0.0
2018-Feb-15 10:24N 34°24' W 119°42'0 0.0
2018-Feb-15 09:51N 34°24' W 119°42'0 0.0
2018-Feb-15 09:27N 34°24' W 119°42'0 0.0
2018-Feb-15 08:51N 34°24' W 119°42'0 0.0
2018-Feb-15 05:33N 34°24' W 119°42'0 0.0
2018-Feb-15 00:21N 34°24' W 119°42'0 0.0
2018-Feb-14 23:00N 34°24' W 119°42'4 7.4
2018-Feb-14 22:30N 34°22' W 119°44'711.5
2018-Feb-14 21:56N 34°17' W 119°50'712.0
2018-Feb-14 21:22N 34°10' W 119°51'612.6
2018-Feb-14 20:55N 34°05' W 119°55'2 4.1
2018-Feb-14 20:26N 34°05' W 119°52'6 6.8
2018-Feb-14 19:34N 34°09' W 119°48'0 3.4
2018-Feb-14 19:29N 34°09' W 119°48'5 9.9
2018-Feb-14 18:59N 34°14' W 119°47'1217.6
2018-Feb-14 18:17N 34°25' W 119°40'  
2018-Feb-11 22:50N 34°24' W 119°42'0 0.0
2018-Feb-11 22:26N 34°24' W 119°42'0 0.0
2018-Feb-11 21:02N 34°24' W 119°42'0 0.0
2018-Feb-11 20:44N 34°24' W 119°42'0 0.0
2018-Feb-11 19:11N 34°24' W 119°42'0 0.0
2018-Feb-11 15:26N 34°24' W 119°42'0 0.0
2018-Feb-11 14:56N 34°24' W 119°42'0 0.0
2018-Feb-11 13:53N 34°24' W 119°42'0 0.0
2018-Feb-11 12:11N 34°24' W 119°42'0 0.0
2018-Feb-11 07:35N 34°24' W 119°42'  
Track history (hours):
 
Tides and Currents Weather Stations Pressure Air Temp Water Temp Dewpoint Dewpoint Depression Visibility Wind Speed Wind Dir Waves Ship Positions

Condor Express

Owner: H & M Landing Inc, Santa Barbara, CA. More information available from US FCC via Universal Licensing System and Coast Guard Vessel Documentation Center.

Last reported at 2018-Feb-21 01:15 UTC. Time now 2018-Feb-21 03:44 UTC.
Position N 34°24' W 119°41'.

Length 23 m.

Type: Ship. MMSI: 367568350.

Date/timePositionNaut miles runAvg speedWind from/ knotsBaromVisibWave heightAir tempDewpointWater temp
2018-Feb-21 01:15N 34°24' W 119°41'311.1
2018-Feb-21 00:56N 34°22' W 119°44'510.0
2018-Feb-21 00:29N 34°21' W 119°50'4 7.3
2018-Feb-20 23:58N 34°24' W 119°47'3 6.2
2018-Feb-20 23:29N 34°24' W 119°43'2 0.6
2018-Feb-20 20:27N 34°24' W 119°42'0 0.0
2018-Feb-20 06:17N 34°24' W 119°42'0 0.0
2018-Feb-19 22:47N 34°24' W 119°42'0 0.0
2018-Feb-19 19:08N 34°24' W 119°42'0 0.0
2018-Feb-18 22:51N 34°24' W 119°41'410.8
2018-Feb-18 22:27N 34°22' W 119°46'3 6.0
2018-Feb-18 21:55N 34°19' W 119°45'818.0
2018-Feb-18 21:27N 34°11' W 119°48'5 9.5
2018-Feb-18 20:58N 34°08' W 119°52'3 6.7
2018-Feb-18 20:29N 34°05' W 119°53'4 7.9
2018-Feb-18 20:00N 34°07' W 119°50'1 1.8
2018-Feb-18 19:30N 34°08' W 119°49'611.0
2018-Feb-18 18:56N 34°14' W 119°49'916.8
2018-Feb-18 18:26N 34°21' W 119°44'4 1.0
2018-Feb-18 14:27N 34°24' W 119°42'0 0.0
2018-Feb-18 11:12N 34°24' W 119°42'0 0.0
2018-Feb-18 07:54N 34°24' W 119°42'0 0.0
2018-Feb-18 06:00N 34°24' W 119°42'0 0.0
2018-Feb-18 05:27N 34°24' W 119°42'0 0.0
2018-Feb-18 04:36N 34°24' W 119°42'0 0.0
2018-Feb-18 01:18N 34°24' W 119°42'0 0.0
2018-Feb-18 00:45N 34°24' W 119°42'0 0.0
2018-Feb-18 00:27N 34°24' W 119°42'0 0.0
2018-Feb-17 22:42N 34°24' W 119°42'310.9
2018-Feb-17 22:27N 34°22' W 119°43'1019.9
2018-Feb-17 21:57N 34°13' W 119°48'613.2
2018-Feb-17 21:29N 34°07' W 119°51'3 5.5
2018-Feb-17 20:56N 34°04' W 119°50'1 1.3
2018-Feb-17 20:26N 34°04' W 119°51'3 7.1
2018-Feb-17 20:00N 34°07' W 119°49'2 3.3
2018-Feb-17 19:30N 34°08' W 119°51'916.7
2018-Feb-17 19:00N 34°16' W 119°47'1017.0
2018-Feb-17 18:26N 34°24' W 119°40'1 0.6
2018-Feb-17 16:07N 34°24' W 119°42'0 0.0
2018-Feb-17 14:58N 34°24' W 119°42'0 0.0
2018-Feb-17 14:28N 34°24' W 119°42'0 0.0
2018-Feb-17 13:46N 34°24' W 119°42'0 0.0
2018-Feb-17 13:25N 34°24' W 119°42'0 0.0
2018-Feb-17 11:10N 34°24' W 119°42'0 0.0
2018-Feb-17 10:52N 34°24' W 119°42'0 0.0
2018-Feb-17 07:10N 34°24' W 119°42'0 0.0
2018-Feb-17 06:49N 34°24' W 119°42'0 0.0
2018-Feb-17 06:13N 34°24' W 119°42'0 0.0
2018-Feb-17 03:22N 34°24' W 119°42'0 0.0
2018-Feb-17 02:49N 34°24' W 119°42'0 0.0
2018-Feb-17 00:25N 34°24' W 119°42'0 0.0
2018-Feb-16 23:01N 34°24' W 119°42'0 0.0
2018-Feb-16 22:37N 34°24' W 119°42'1 3.6
2018-Feb-16 22:24N 34°24' W 119°41'817.3
2018-Feb-16 21:57N 34°17' W 119°44'1018.6
2018-Feb-16 21:26N 34°08' W 119°49'4 7.2
2018-Feb-16 20:49N 34°06' W 119°54'3 7.1
2018-Feb-16 20:27N 34°08' W 119°54'4 7.9
2018-Feb-16 19:59N 34°12' W 119°52'10 7.6
2018-Feb-16 18:39N 34°21' W 119°48'313.1
2018-Feb-16 18:24N 34°23' W 119°45'3 0.9
2018-Feb-16 15:08N 34°24' W 119°42'0 0.0
2018-Feb-16 14:59N 34°24' W 119°42'0 0.0
2018-Feb-16 14:26N 34°24' W 119°42'0 0.0
2018-Feb-16 12:08N 34°24' W 119°42'0 0.0
2018-Feb-16 10:59N 34°24' W 119°42'0 0.0
2018-Feb-16 10:17N 34°24' W 119°42'0 0.0
2018-Feb-16 09:44N 34°24' W 119°42'0 0.0
2018-Feb-16 09:17N 34°24' W 119°42'0 0.0
2018-Feb-16 05:32N 34°24' W 119°42'0 0.0
2018-Feb-16 04:02N 34°24' W 119°42'0 0.0
2018-Feb-16 03:56N 34°24' W 119°42'0 0.0
2018-Feb-16 02:38N 34°24' W 119°42'0 0.0
2018-Feb-16 02:17N 34°24' W 119°42'0 0.0
2018-Feb-16 01:59N 34°24' W 119°42'0 0.0
2018-Feb-15 22:56N 34°24' W 119°42'0 0.0
2018-Feb-15 22:29N 34°24' W 119°42'0 0.0
2018-Feb-15 21:41N 34°24' W 119°42'0 0.0
2018-Feb-15 21:29N 34°24' W 119°42'0 0.0
2018-Feb-15 20:56N 34°24' W 119°42'0 0.0
2018-Feb-15 19:12N 34°24' W 119°42'0 0.5
2018-Feb-15 18:59N 34°24' W 119°41'0 0.1
2018-Feb-15 18:18N 34°24' W 119°41'0 0.3
2018-Feb-15 17:51N 34°24' W 119°42'0 0.0
2018-Feb-15 13:57N 34°24' W 119°42'0 0.0
2018-Feb-15 10:24N 34°24' W 119°42'0 0.0
2018-Feb-15 09:51N 34°24' W 119°42'0 0.0
2018-Feb-15 09:27N 34°24' W 119°42'0 0.0
2018-Feb-15 08:51N 34°24' W 119°42'0 0.0
2018-Feb-15 05:33N 34°24' W 119°42'0 0.0
2018-Feb-15 00:21N 34°24' W 119°42'0 0.0
2018-Feb-14 23:00N 34°24' W 119°42'4 7.4
2018-Feb-14 22:30N 34°22' W 119°44'711.5
2018-Feb-14 21:56N 34°17' W 119°50'712.0
2018-Feb-14 21:22N 34°10' W 119°51'612.6
2018-Feb-14 20:55N 34°05' W 119°55'2 4.1
2018-Feb-14 20:26N 34°05' W 119°52'6 6.8
2018-Feb-14 19:34N 34°09' W 119°48'0 3.4
2018-Feb-14 19:29N 34°09' W 119°48'5 9.9
2018-Feb-14 18:59N 34°14' W 119°47'1217.6
2018-Feb-14 18:17N 34°25' W 119°40'  
2018-Feb-11 22:50N 34°24' W 119°42'0 0.0
2018-Feb-11 22:26N 34°24' W 119°42'0 0.0
2018-Feb-11 21:02N 34°24' W 119°42'0 0.0
2018-Feb-11 20:44N 34°24' W 119°42'0 0.0
2018-Feb-11 19:11N 34°24' W 119°42'0 0.0
2018-Feb-11 15:26N 34°24' W 119°42'0 0.0
2018-Feb-11 14:56N 34°24' W 119°42'0 0.0
2018-Feb-11 13:53N 34°24' W 119°42'0 0.0
2018-Feb-11 12:11N 34°24' W 119°42'0 0.0
2018-Feb-11 07:35N 34°24' W 119°42'  

Dump ship's entire track history